McKinney, Texas
Current Conditions -  °F | °C
As of 3:53 AM on Monday 22 Dec 2014 (Local Time) from KTKI Reporting Station
Overcast Overcast  
Wind Chill: 54°   Ceiling: 2200
Heat Index: 54°   Visibility: 10mi
Dew Point: 49°   Wind: 16mph
Humidity: 83%   Direction: 190°S
Pressure: 29.62"   Gusts: 25mph
Location:  33.2°N, 96.61°W
Report Text: KTKI 220953Z AUTO 19014G22KT 10SM BKN022 OVC027 12/09 A2962 RMK AO2 SLP037 T01220094
Loading
Personal Weather Stations






























Interactive Weather Map New forecast layout! Learn more

10-Day Weather Forecast

Advertisements
Track Severe Weather on mobile